createdAt,value
2023-02-04T00:02:08.635Z,8.20
2023-02-04T00:04:35.439Z,8.20
2023-02-04T00:07:02.070Z,8.20
2023-02-04T00:09:28.753Z,8.20
2023-02-04T00:11:55.444Z,8.10
2023-02-04T00:14:22.114Z,8.10
2023-02-04T00:16:48.752Z,8.10
2023-02-04T00:19:17.012Z,8.00
2023-02-04T00:21:43.793Z,8.00
2023-02-04T00:24:10.446Z,8.00
2023-02-04T00:26:37.338Z,8.00
2023-02-04T00:29:03.999Z,8.00
2023-02-04T00:31:31.271Z,8.00
2023-02-04T00:33:58.031Z,8.00
2023-02-04T00:36:24.677Z,8.00
2023-02-04T00:38:51.354Z,8.00
2023-02-04T00:41:17.982Z,8.00
2023-02-04T00:43:44.617Z,8.00
2023-02-04T00:46:11.376Z,8.00
2023-02-04T00:48:38.098Z,8.00
2023-02-04T00:51:04.821Z,8.00
2023-02-04T00:53:31.479Z,8.00
2023-02-04T00:55:58.592Z,8.00
2023-02-04T00:58:25.216Z,8.00
2023-02-04T01:00:51.988Z,8.00
2023-02-04T01:03:19.042Z,8.00
2023-02-04T01:05:45.678Z,8.10
2023-02-04T01:08:12.342Z,8.00
2023-02-04T01:10:39.019Z,8.00
2023-02-04T01:13:05.952Z,8.00
2023-02-04T01:15:32.626Z,8.00
2023-02-04T01:17:59.286Z,8.00
2023-02-04T01:20:26.186Z,8.00
2023-02-04T01:22:52.883Z,8.10
2023-02-04T01:25:20.061Z,8.00
2023-02-04T01:27:46.840Z,8.00
2023-02-04T01:30:15.417Z,7.90
2023-02-04T01:32:42.370Z,7.90
2023-02-04T01:35:09.254Z,7.90
2023-02-04T01:37:35.929Z,7.80
2023-02-04T01:40:03.031Z,7.80
2023-02-04T01:42:29.714Z,7.70
2023-02-04T01:44:56.370Z,7.70
2023-02-04T01:47:24.774Z,7.70
2023-02-04T01:49:53.817Z,7.60
2023-02-04T01:52:21.820Z,7.60
2023-02-04T01:54:48.575Z,7.60
2023-02-04T01:57:16.529Z,7.50
2023-02-04T01:59:47.804Z,7.50
2023-02-04T02:02:52.508Z,7.50
2023-02-04T02:05:27.159Z,7.60
2023-02-04T02:07:56.836Z,7.40
2023-02-04T02:10:24.397Z,7.40
2023-02-04T02:12:51.306Z,7.40
2023-02-04T02:15:18.657Z,7.30
2023-02-04T02:17:45.767Z,7.30
2023-02-04T02:20:16.503Z,7.30
2023-02-04T02:23:10.338Z,7.20
2023-02-04T02:25:37.307Z,7.10
2023-02-04T02:28:09.172Z,7.10
2023-02-04T02:30:36.200Z,7.00
2023-02-04T02:33:03.773Z,7.00
2023-02-04T02:35:30.487Z,7.00
2023-02-04T02:37:57.411Z,6.90
2023-02-04T02:40:24.627Z,6.80
2023-02-04T02:42:53.446Z,6.80
2023-02-04T02:45:30.452Z,6.80
2023-02-04T02:48:00.261Z,6.80
2023-02-04T02:50:29.696Z,6.70
2023-02-04T02:52:56.953Z,6.70
2023-02-04T02:55:26.428Z,6.70
2023-02-04T02:57:54.489Z,6.70
2023-02-04T03:00:27.028Z,6.70
2023-02-04T03:03:11.322Z,6.70
2023-02-04T03:05:43.462Z,6.70
2023-02-04T03:08:12.298Z,6.70
2023-02-04T03:10:39.216Z,6.70
2023-02-04T03:13:06.079Z,6.70
2023-02-04T03:15:33.517Z,6.80
2023-02-04T03:18:01.397Z,6.80
2023-02-04T03:20:30.684Z,6.80
2023-02-04T03:22:58.392Z,6.80
2023-02-04T03:25:29.256Z,6.80
2023-02-04T03:27:57.925Z,6.80
2023-02-04T03:30:26.467Z,6.80
2023-02-04T03:32:53.949Z,6.80
2023-02-04T03:35:21.178Z,6.90
2023-02-04T03:37:47.846Z,6.90
2023-02-04T03:40:15.011Z,6.90
2023-02-04T03:42:41.685Z,6.90
2023-02-04T03:45:08.676Z,6.90
2023-02-04T03:47:35.402Z,7.00
2023-02-04T03:50:02.243Z,6.90
2023-02-04T03:52:28.948Z,7.00
2023-02-04T03:54:55.621Z,7.00
2023-02-04T03:57:22.370Z,7.00
2023-02-04T03:59:49.045Z,7.00
2023-02-04T04:02:15.717Z,7.00
2023-02-04T04:04:42.435Z,7.00
2023-02-04T04:07:09.111Z,7.00
2023-02-04T04:09:35.828Z,7.00
2023-02-04T04:12:03.960Z,7.00
2023-02-04T04:14:30.647Z,7.00
2023-02-04T04:16:57.301Z,7.00
2023-02-04T04:19:24.922Z,7.00
2023-02-04T04:21:51.749Z,7.00
2023-02-04T04:24:18.449Z,7.00
2023-02-04T04:26:48.250Z,7.00
2023-02-04T04:29:14.891Z,7.00
2023-02-04T04:31:41.814Z,7.00
2023-02-04T04:34:08.537Z,6.90
2023-02-04T04:36:35.373Z,7.00
2023-02-04T04:39:02.206Z,6.90
2023-02-04T04:41:28.948Z,6.90
2023-02-04T04:43:55.606Z,6.90
2023-02-04T04:46:22.352Z,6.90
2023-02-04T04:48:49.315Z,6.90
2023-02-04T04:51:16.048Z,6.80
2023-02-04T04:53:42.747Z,6.80
2023-02-04T04:56:09.384Z,6.70
2023-02-04T04:58:36.221Z,6.70
2023-02-04T05:01:02.993Z,6.70
2023-02-04T05:03:29.701Z,6.60
2023-02-04T05:05:56.388Z,6.60
2023-02-04T05:08:23.070Z,6.60
2023-02-04T05:10:49.758Z,6.60
2023-02-04T05:13:16.463Z,6.60
2023-02-04T05:15:43.240Z,6.60
2023-02-04T05:18:10.018Z,6.60
2023-02-04T05:20:36.757Z,6.50
2023-02-04T05:23:05.496Z,6.50
2023-02-04T05:25:32.525Z,6.50
2023-02-04T05:27:59.410Z,6.50
2023-02-04T05:30:26.291Z,6.50
2023-02-04T05:32:52.967Z,6.50
2023-02-04T05:35:19.854Z,6.50
2023-02-04T05:37:46.554Z,6.40
2023-02-04T05:40:13.528Z,6.40
2023-02-04T05:42:41.757Z,6.40
2023-02-04T05:45:13.553Z,6.30
2023-02-04T05:47:40.235Z,6.30
2023-02-04T05:50:07.568Z,6.20
2023-02-04T05:52:34.284Z,6.20
2023-02-04T05:55:01.016Z,6.20
2023-02-04T05:57:27.700Z,6.20
2023-02-04T05:59:54.448Z,6.10
2023-02-04T06:02:21.195Z,6.10
2023-02-04T06:04:47.823Z,6.10
2023-02-04T06:07:14.478Z,6.10
2023-02-04T06:09:41.277Z,6.00
2023-02-04T06:12:08.079Z,6.00
2023-02-04T06:14:34.731Z,6.00
2023-02-04T06:17:01.433Z,6.00
2023-02-04T06:19:28.153Z,6.00
2023-02-04T06:21:54.818Z,5.90
2023-02-04T06:24:21.454Z,5.90
2023-02-04T06:26:48.156Z,5.80
2023-02-04T06:29:14.886Z,5.80
2023-02-04T06:31:41.695Z,5.80
2023-02-04T06:34:08.438Z,5.80
2023-02-04T06:36:35.156Z,5.70
2023-02-04T06:39:02.101Z,5.70
2023-02-04T06:41:28.792Z,5.70
2023-02-04T06:43:55.522Z,5.70
2023-02-04T06:46:22.310Z,5.80
2023-02-04T06:48:49.136Z,5.70
2023-02-04T06:51:15.792Z,5.70
2023-02-04T06:53:44.154Z,5.70
2023-02-04T06:56:11.369Z,5.70
2023-02-04T06:58:38.567Z,5.70
2023-02-04T07:01:06.458Z,5.80
2023-02-04T07:03:34.001Z,5.80
2023-02-04T07:06:00.631Z,5.80
2023-02-04T07:08:27.400Z,5.80
2023-02-04T07:10:54.118Z,5.90
2023-02-04T07:13:20.837Z,5.90
2023-02-04T07:15:47.576Z,6.00
2023-02-04T07:18:14.321Z,6.00
2023-02-04T07:20:40.970Z,6.00
2023-02-04T07:23:07.649Z,6.00
2023-02-04T07:25:34.301Z,6.10
2023-02-04T07:28:02.030Z,6.10
2023-02-04T07:30:28.735Z,6.10
2023-02-04T07:32:55.455Z,6.20
2023-02-04T07:35:22.139Z,6.20
2023-02-04T07:37:48.790Z,6.20
2023-02-04T07:40:15.919Z,6.20
2023-02-04T07:42:42.574Z,6.20
2023-02-04T07:45:09.417Z,6.30
2023-02-04T07:47:36.102Z,6.30
2023-02-04T07:50:03.064Z,6.30
2023-02-04T07:52:29.992Z,6.40
2023-02-04T07:54:56.670Z,6.40
2023-02-04T07:57:23.324Z,6.50
2023-02-04T07:59:50.032Z,6.50
2023-02-04T08:02:16.763Z,6.60
2023-02-04T08:04:43.410Z,6.60
2023-02-04T08:07:10.082Z,6.70
2023-02-04T08:09:36.859Z,6.70
2023-02-04T08:12:03.783Z,6.80
2023-02-04T08:14:30.445Z,6.80
2023-02-04T08:16:57.107Z,6.90
2023-02-04T08:19:23.804Z,6.90
2023-02-04T08:21:50.481Z,7.00
2023-02-04T08:24:17.649Z,7.10
2023-02-04T08:26:45.000Z,7.10
2023-02-04T08:29:11.853Z,7.20
2023-02-04T08:31:38.908Z,7.30
2023-02-04T08:34:06.810Z,7.40
2023-02-04T08:36:33.978Z,7.50
2023-02-04T08:39:00.633Z,7.50
2023-02-04T08:41:27.329Z,7.60
2023-02-04T08:43:54.091Z,7.70
2023-02-04T08:46:20.862Z,7.70
2023-02-04T08:48:47.558Z,7.80
2023-02-04T08:51:14.298Z,7.90
2023-02-04T08:53:41.077Z,7.90
2023-02-04T08:56:10.507Z,8.00
2023-02-04T08:58:37.147Z,8.00
2023-02-04T09:01:03.972Z,8.10
2023-02-04T09:03:30.638Z,8.20
2023-02-04T09:05:57.290Z,8.30
2023-02-04T09:08:23.959Z,8.40
2023-02-04T09:10:50.650Z,8.50
2023-02-04T09:13:17.533Z,8.50
2023-02-04T09:15:44.196Z,8.70
2023-02-04T09:18:19.081Z,8.80
2023-02-04T09:20:46.339Z,8.90
2023-02-04T09:23:13.398Z,9.00
2023-02-04T09:25:41.128Z,9.10
2023-02-04T09:28:11.263Z,9.10
2023-02-04T09:30:39.753Z,9.30
2023-02-04T09:33:06.586Z,9.30
2023-02-04T09:35:33.598Z,9.30
2023-02-04T09:38:02.064Z,9.50
2023-02-04T09:40:31.948Z,9.40
2023-02-04T09:42:59.402Z,9.40
2023-02-04T09:45:29.625Z,9.40
2023-02-04T09:48:02.416Z,9.50
2023-02-04T09:50:34.180Z,9.50
2023-02-04T09:53:04.584Z,9.70
2023-02-04T09:55:35.391Z,9.70
2023-02-04T09:58:02.864Z,9.80
2023-02-04T10:00:31.317Z,9.90
2023-02-04T10:03:00.853Z,10.10
2023-02-04T10:05:33.521Z,10.10
2023-02-04T10:08:00.752Z,10.00
2023-02-04T10:10:28.478Z,10.00
2023-02-04T10:12:59.762Z,10.00
2023-02-04T10:15:27.121Z,10.00
2023-02-04T10:18:07.183Z,9.90
2023-02-04T10:20:34.193Z,10.00
2023-02-04T10:23:01.058Z,9.90
2023-02-04T10:25:27.782Z,10.00
2023-02-04T10:27:59.770Z,10.00
2023-02-04T10:30:35.772Z,10.10
2023-02-04T10:33:14.212Z,10.10
2023-02-04T10:35:49.294Z,10.20
2023-02-04T10:38:16.249Z,10.30
2023-02-04T10:40:43.252Z,10.40
2023-02-04T10:43:17.219Z,10.50
2023-02-04T10:45:56.200Z,10.70
2023-02-04T10:48:23.260Z,10.80
2023-02-04T10:50:50.158Z,10.80
2023-02-04T10:53:38.328Z,10.90
2023-02-04T10:56:09.251Z,10.90
2023-02-04T10:58:35.924Z,11.00
2023-02-04T11:01:02.684Z,11.00
2023-02-04T11:03:30.870Z,11.10
2023-02-04T11:06:00.585Z,11.10
2023-02-04T11:08:30.552Z,11.10
2023-02-04T11:11:06.157Z,11.20
2023-02-04T11:13:40.682Z,11.20
2023-02-04T11:16:25.384Z,11.20
2023-02-04T11:18:58.272Z,11.20
2023-02-04T11:21:34.092Z,11.20
2023-02-04T11:24:13.736Z,11.10
2023-02-04T11:26:44.063Z,11.10
2023-02-04T11:29:16.677Z,11.10
2023-02-04T11:32:00.076Z,11.10
2023-02-04T11:34:29.179Z,11.00
2023-02-04T11:37:01.753Z,10.90
2023-02-04T11:39:43.617Z,10.90
2023-02-04T11:42:40.375Z,10.90
2023-02-04T11:45:43.175Z,11.00
2023-02-04T11:48:18.511Z,11.10
2023-02-04T11:50:56.872Z,11.10
2023-02-04T11:53:32.103Z,11.20
2023-02-04T11:55:59.521Z,11.30
2023-02-04T11:58:28.559Z,11.40
2023-02-04T12:00:55.301Z,11.40
2023-02-04T12:03:31.746Z,11.50
2023-02-04T12:05:59.229Z,11.50
2023-02-04T12:08:33.107Z,11.60
2023-02-04T12:11:03.668Z,11.60
2023-02-04T12:13:31.507Z,11.70
2023-02-04T12:16:04.011Z,11.60
2023-02-04T12:18:32.866Z,11.50
2023-02-04T12:21:00.570Z,11.50
2023-02-04T12:23:29.538Z,11.50
2023-02-04T12:25:56.374Z,11.50
2023-02-04T12:28:24.113Z,11.40
2023-02-04T12:30:51.372Z,11.40
2023-02-04T12:33:18.167Z,11.40
2023-02-04T12:35:44.811Z,11.40
2023-02-04T12:38:11.714Z,11.40
2023-02-04T12:40:38.548Z,11.40
2023-02-04T12:43:05.776Z,11.40
2023-02-04T12:45:33.200Z,11.30
2023-02-04T12:48:00.427Z,11.30
2023-02-04T12:50:27.096Z,11.30
2023-02-04T12:52:58.701Z,11.20
2023-02-04T12:55:28.153Z,11.20
2023-02-04T12:57:56.155Z,11.20
2023-02-04T13:00:23.785Z,11.20
2023-02-04T13:02:50.763Z,11.20
2023-02-04T13:05:18.478Z,11.20
2023-02-04T13:07:45.175Z,11.10
2023-02-04T13:10:13.460Z,11.10
2023-02-04T13:12:40.417Z,11.10
2023-02-04T13:15:07.727Z,11.00
2023-02-04T13:17:34.461Z,11.00
2023-02-04T13:20:01.355Z,11.10
2023-02-04T13:22:28.230Z,11.00
2023-02-04T13:24:54.950Z,11.00
2023-02-04T13:27:21.956Z,11.00
2023-02-04T13:29:48.790Z,11.00
2023-02-04T13:32:15.480Z,11.00
2023-02-04T13:34:42.193Z,11.00
2023-02-04T13:37:08.932Z,11.00
2023-02-04T13:39:35.739Z,11.00
2023-02-04T13:42:04.494Z,11.00
2023-02-04T13:44:31.559Z,11.00
2023-02-04T13:46:58.337Z,11.00
2023-02-04T13:49:25.278Z,11.00
2023-02-04T13:51:52.063Z,11.00
2023-02-04T13:54:18.826Z,11.00
2023-02-04T13:56:45.590Z,11.00
2023-02-04T13:59:12.341Z,10.90
2023-02-04T14:01:39.274Z,10.90
2023-02-04T14:04:06.059Z,10.90
2023-02-04T14:06:38.326Z,10.90
2023-02-04T14:09:05.493Z,10.90
2023-02-04T14:11:32.263Z,10.90
2023-02-04T14:13:59.012Z,10.90
2023-02-04T14:16:25.732Z,10.90
2023-02-04T14:18:52.648Z,10.90
2023-02-04T14:21:19.332Z,10.90
2023-02-04T14:23:46.140Z,10.90
2023-02-04T14:26:12.917Z,10.90
2023-02-04T14:28:39.682Z,10.80
2023-02-04T14:31:06.515Z,10.80
2023-02-04T14:33:33.454Z,10.70
2023-02-04T14:36:00.622Z,10.70
2023-02-04T14:38:31.069Z,10.60
2023-02-04T14:40:58.827Z,10.50
2023-02-04T14:43:25.662Z,10.60
2023-02-04T14:45:52.624Z,10.40
2023-02-04T14:48:19.682Z,10.40
2023-02-04T14:50:46.457Z,10.40
2023-02-04T14:53:13.323Z,10.30
2023-02-04T14:55:40.180Z,10.30
2023-02-04T14:58:07.225Z,10.30
2023-02-04T15:00:34.437Z,10.20
2023-02-04T15:03:01.408Z,10.30
2023-02-04T15:05:29.388Z,10.20
2023-02-04T15:07:56.268Z,10.20
2023-02-04T15:10:24.581Z,10.20
2023-02-04T15:12:51.884Z,10.20
2023-02-04T15:15:18.890Z,10.20
2023-02-04T15:17:45.688Z,10.20
2023-02-04T15:20:13.450Z,10.20
2023-02-04T15:22:40.211Z,10.20
2023-02-04T15:25:07.088Z,10.10
2023-02-04T15:27:33.917Z,10.10
2023-02-04T15:30:00.663Z,10.10
2023-02-04T15:32:27.508Z,10.00
2023-02-04T15:34:54.256Z,10.00
2023-02-04T15:37:20.960Z,10.00
2023-02-04T15:39:47.803Z,10.00
2023-02-04T15:42:14.813Z,10.00
2023-02-04T15:44:41.564Z,10.00
2023-02-04T15:47:08.283Z,10.00
2023-02-04T15:49:35.162Z,10.00
2023-02-04T15:52:02.448Z,9.90
2023-02-04T15:54:29.406Z,9.90
2023-02-04T15:56:56.133Z,9.80
2023-02-04T15:59:23.095Z,9.80
2023-02-04T16:01:50.721Z,9.80
2023-02-04T16:04:19.763Z,9.80
2023-02-04T16:06:57.880Z,9.70
2023-02-04T16:09:25.833Z,9.70
2023-02-04T16:11:52.660Z,9.60
2023-02-04T16:14:19.400Z,9.70
2023-02-04T16:16:46.157Z,9.60
2023-02-04T16:19:13.017Z,9.60
2023-02-04T16:21:39.772Z,9.70
2023-02-04T16:24:06.846Z,9.60
2023-02-04T16:26:33.590Z,9.60
2023-02-04T16:29:00.326Z,9.60
2023-02-04T16:31:27.166Z,9.50
2023-02-04T16:33:53.930Z,9.50
2023-02-04T16:36:20.740Z,9.40
2023-02-04T16:38:47.456Z,9.30
2023-02-04T16:41:14.414Z,9.30
2023-02-04T16:43:41.355Z,9.30
2023-02-04T16:46:08.417Z,9.30
2023-02-04T16:48:36.419Z,9.20
2023-02-04T16:51:03.576Z,9.20
2023-02-04T16:53:30.381Z,9.20
2023-02-04T16:55:57.172Z,9.10
2023-02-04T16:58:23.968Z,9.10
2023-02-04T17:00:50.635Z,9.00
2023-02-04T17:03:17.489Z,9.00
2023-02-04T17:05:44.294Z,9.00
2023-02-04T17:08:13.578Z,9.00
2023-02-04T17:10:59.536Z,8.90
2023-02-04T17:13:26.223Z,8.90
2023-02-04T17:15:54.187Z,9.00
2023-02-04T17:18:20.991Z,9.00
2023-02-04T17:20:47.675Z,8.90
2023-02-04T17:23:14.339Z,9.00
2023-02-04T17:25:41.074Z,9.00
2023-02-04T17:28:07.847Z,9.00
2023-02-04T17:30:34.576Z,9.00
2023-02-04T17:33:01.250Z,8.90
2023-02-04T17:35:27.962Z,8.90
2023-02-04T17:37:55.024Z,8.90
2023-02-04T17:40:21.721Z,8.90
2023-02-04T17:42:48.539Z,8.90
2023-02-04T17:45:15.372Z,9.00
2023-02-04T17:47:42.121Z,8.90
2023-02-04T17:50:10.372Z,8.90
2023-02-04T17:52:37.951Z,8.90
2023-02-04T17:55:38.077Z,9.00
2023-02-04T17:58:13.955Z,9.20
2023-02-04T18:00:43.150Z,9.10
2023-02-04T18:03:18.900Z,9.10
2023-02-04T18:05:48.506Z,9.10
2023-02-04T18:08:19.385Z,9.10
2023-02-04T18:10:48.310Z,9.10
2023-02-04T18:13:20.832Z,9.10
2023-02-04T18:15:56.198Z,9.00
2023-02-04T18:18:37.757Z,9.00
2023-02-04T18:21:25.321Z,9.00
2023-02-04T18:24:18.545Z,9.00
2023-02-04T18:26:45.397Z,9.00
2023-02-04T18:29:21.100Z,9.00
2023-02-04T18:31:53.076Z,9.00
2023-02-04T18:34:33.065Z,9.00
2023-02-04T18:37:20.367Z,9.00
2023-02-04T18:39:47.082Z,8.90
2023-02-04T18:42:18.863Z,8.90
2023-02-04T18:44:46.506Z,8.90
2023-02-04T18:47:32.646Z,8.80
2023-02-04T18:50:01.373Z,8.80
2023-02-04T18:52:36.749Z,8.80
2023-02-04T18:55:36.296Z,8.70
2023-02-04T18:58:35.762Z,8.70
2023-02-04T19:01:16.846Z,8.70
2023-02-04T19:04:00.982Z,8.70
2023-02-04T19:06:43.940Z,8.70
2023-02-04T19:09:13.521Z,8.70
2023-02-04T19:11:51.122Z,8.60
2023-02-04T19:14:37.449Z,8.60
2023-02-04T19:17:28.094Z,8.60
2023-02-04T19:19:57.913Z,8.60
2023-02-04T19:22:43.407Z,8.60
2023-02-04T19:25:37.545Z,8.60
2023-02-04T19:28:41.365Z,8.60
2023-02-04T19:31:08.566Z,8.60
2023-02-04T19:33:42.443Z,8.60
2023-02-04T19:36:28.359Z,8.60
2023-02-04T19:39:22.840Z,8.60
2023-02-04T19:41:54.197Z,8.60
2023-02-04T19:44:33.239Z,8.60
2023-02-04T19:47:17.916Z,8.60
2023-02-04T19:49:44.623Z,8.60
2023-02-04T19:52:34.715Z,8.60
2023-02-04T19:55:19.956Z,8.60
2023-02-04T19:57:52.392Z,8.60
2023-02-04T20:00:38.968Z,8.60
2023-02-04T20:03:30.928Z,8.50
2023-02-04T20:06:09.908Z,8.50
2023-02-04T20:08:47.585Z,8.30
2023-02-04T20:11:44.287Z,8.30
2023-02-04T20:14:14.069Z,8.20
2023-02-04T20:16:51.290Z,8.10
2023-02-04T20:19:19.452Z,8.10
2023-02-04T20:22:06.334Z,8.10
2023-02-04T20:24:39.230Z,8.10
2023-02-04T20:27:25.010Z,8.10
2023-02-04T20:30:12.498Z,8.10
2023-02-04T20:32:47.277Z,8.10
2023-02-04T20:35:13.907Z,8.10
2023-02-04T20:37:42.236Z,8.10
2023-02-04T20:40:17.084Z,8.10
2023-02-04T20:42:50.000Z,8.00
2023-02-04T20:45:39.095Z,8.00
2023-02-04T20:48:17.936Z,8.00
2023-02-04T20:50:53.033Z,8.00
2023-02-04T20:53:23.549Z,8.00
2023-02-04T20:56:05.341Z,8.00
2023-02-04T20:58:41.274Z,8.00
2023-02-04T21:01:22.577Z,8.00
2023-02-04T21:03:51.167Z,8.00
2023-02-04T21:06:24.327Z,8.00
2023-02-04T21:08:52.927Z,8.00
2023-02-04T21:11:20.224Z,8.00
2023-02-04T21:13:47.533Z,8.00
2023-02-04T21:16:14.186Z,8.00
2023-02-04T21:18:40.981Z,8.00
2023-02-04T21:21:09.931Z,8.00
2023-02-04T21:23:37.046Z,8.00
2023-02-04T21:26:04.853Z,8.00
2023-02-04T21:28:32.421Z,8.00
2023-02-04T21:31:00.319Z,7.90
2023-02-04T21:33:27.169Z,7.90
2023-02-04T21:35:54.061Z,7.90
2023-02-04T21:38:20.824Z,7.90
2023-02-04T21:40:47.515Z,7.80
2023-02-04T21:43:14.339Z,7.80
2023-02-04T21:45:41.049Z,7.80
2023-02-04T21:48:08.007Z,7.70
2023-02-04T21:50:36.342Z,7.70
2023-02-04T21:53:03.045Z,7.70
2023-02-04T21:55:29.852Z,7.70
2023-02-04T21:57:56.554Z,7.70
2023-02-04T22:00:23.915Z,7.70
2023-02-04T22:02:52.182Z,7.70
2023-02-04T22:05:20.069Z,7.70
2023-02-04T22:07:46.732Z,7.70
2023-02-04T22:10:19.766Z,7.70
2023-02-04T22:12:46.836Z,7.70
2023-02-04T22:15:13.510Z,7.70
2023-02-04T22:17:40.182Z,7.70
2023-02-04T22:20:07.312Z,7.70
2023-02-04T22:22:34.011Z,7.70
2023-02-04T22:25:01.085Z,7.70
2023-02-04T22:27:28.086Z,7.70
2023-02-04T22:29:54.891Z,7.70
2023-02-04T22:32:21.558Z,7.70
2023-02-04T22:34:48.220Z,7.70
2023-02-04T22:37:14.846Z,7.70
2023-02-04T22:39:41.491Z,7.70
2023-02-04T22:42:08.595Z,7.70
2023-02-04T22:44:35.348Z,7.70
2023-02-04T22:47:01.982Z,7.70
2023-02-04T22:49:29.148Z,7.70
2023-02-04T22:51:55.845Z,7.70
2023-02-04T22:54:22.459Z,7.60
2023-02-04T22:56:49.083Z,7.60
2023-02-04T22:59:15.759Z,7.60
2023-02-04T23:01:42.405Z,7.60
2023-02-04T23:04:09.087Z,7.60
2023-02-04T23:06:36.765Z,7.70
2023-02-04T23:09:03.829Z,7.60
2023-02-04T23:11:30.511Z,7.70
2023-02-04T23:13:57.141Z,7.60
2023-02-04T23:16:23.834Z,7.60
2023-02-04T23:18:50.548Z,7.70
2023-02-04T23:21:17.445Z,7.50
2023-02-04T23:23:44.259Z,7.60
2023-02-04T23:26:10.996Z,7.60
2023-02-04T23:28:37.719Z,7.60
2023-02-04T23:31:04.549Z,7.60
2023-02-04T23:33:31.319Z,7.60
2023-02-04T23:35:58.142Z,7.70
2023-02-04T23:38:24.918Z,7.70
2023-02-04T23:40:51.868Z,7.60
2023-02-04T23:43:18.558Z,7.60
2023-02-04T23:45:45.953Z,7.60
2023-02-04T23:48:12.762Z,7.60
2023-02-04T23:50:39.430Z,7.60
2023-02-04T23:53:06.075Z,7.60
2023-02-04T23:55:33.320Z,7.60
2023-02-04T23:58:00.363Z,7.60
